Terminal Aerodrome Forecast
Issued by NWS

Home | Current Version | Previous Version | Text Only | Print | Product List | Glossary Off
Versions: 1 2 3 4 5 6 7 8 9 10 11 12 13 14 15 16 17 18

977
FTUS42 KMHX 232336
TAFPGV
TAF
KPGV 232336Z 2400/2424 18008KT 6SM -SHRA SCT008 OVC020
      TEMPO 2400/2402 5SM -SHRA OVC008
     FM240200 22007KT 2SM SHRA SCT008 OVC015
     FM240600 23006KT P6SM VCSH OVC008
     FM241400 05005KT P6SM OVC015
     FM242100 15009KT 6SM -SHRA OVC030
      AMD LTD TO CLD VIS AND WIND=

USA.gov is the U.S. government's official web portal to all federal, state and local government web resources and services.